Time;durP1;ratioP1;P1;durP2;ratioP2;P2;SDS_P1;SDS_P2;PMS_P1;PMS_P2;Temp;Humidity;BMP_temperature;BMP_pressure;BME280_temperature;BME280_humidity;BME280_pressure;Samples;Min_cycle;Max_cycle;Signal;HPM_P1;HPM_P2
2023/12/17 00:01:57;;;;;;;33.63;16.23;;;3.50;99.90;;;;;;5043104;28;20505;-71
2023/12/17 00:04:23;;;;;;;32.00;14.50;;;3.50;99.90;;;;;;5051824;28;20903;-70
2023/12/17 00:06:50;;;;;;;35.43;15.20;;;3.50;99.90;;;;;;5032715;28;20475;-71
2023/12/17 00:09:17;;;;;;;27.03;13.87;;;3.40;99.90;;;;;;5051556;28;20896;-71
2023/12/17 00:11:43;;;;;;;25.40;16.37;;;3.50;99.90;;;;;;5027328;28;20490;-71
2023/12/17 00:14:12;;;;;;;30.43;16.83;;;3.50;99.90;;;;;;5033819;28;20948;-71
2023/12/17 00:16:38;;;;;;;32.70;17.07;;;3.50;99.90;;;;;;5042161;28;20487;-70
2023/12/17 00:19:07;;;;;;;32.47;18.33;;;3.50;99.90;;;;;;5026819;28;20484;-70
2023/12/17 00:21:33;;;;;;;53.80;18.80;;;3.50;99.90;;;;;;5030519;28;20527;-71
2023/12/17 00:24:00;;;;;;;35.23;15.30;;;3.50;99.90;;;;;;5039442;28;20963;-70
2023/12/17 00:26:27;;;;;;;43.13;16.17;;;3.50;99.90;;;;;;5031344;28;21060;-70
2023/12/17 00:28:54;;;;;;;25.63;14.03;;;3.50;99.90;;;;;;5027602;28;20475;-70
2023/12/17 00:31:20;;;;;;;29.17;17.27;;;3.50;99.90;;;;;;5005197;28;20505;-70
2023/12/17 00:33:47;;;;;;;32.53;17.00;;;3.50;99.90;;;;;;5030103;28;21014;-70
2023/12/17 00:36:16;;;;;;;28.13;17.20;;;3.50;99.90;;;;;;5027705;28;20576;-71
2023/12/17 00:38:42;;;;;;;36.93;17.93;;;3.40;99.90;;;;;;5031800;28;20488;-71
2023/12/17 00:41:09;;;;;;;31.53;15.93;;;3.40;99.90;;;;;;5026971;28;20505;-71
2023/12/17 00:43:36;;;;;;;24.97;17.40;;;3.40;99.90;;;;;;5022315;28;20475;-70
2023/12/17 00:46:03;;;;;;;40.60;19.27;;;3.30;99.90;;;;;;5058605;28;20479;-70
2023/12/17 00:48:29;;;;;;;32.67;17.50;;;3.30;99.90;;;;;;5029359;28;20713;-70
2023/12/17 00:50:56;;;;;;;26.40;15.93;;;3.10;99.90;;;;;;5019559;28;20481;-70
2023/12/17 00:53:24;;;;;;;38.80;15.10;;;3.10;99.90;;;;;;5043444;28;20518;-71
2023/12/17 00:55:51;;;;;;;26.30;13.83;;;;;;;;;;5013830;28;20486;-70
2023/12/17 00:58:18;;;;;;;40.20;17.10;;;3.10;99.90;;;;;;5034629;28;20491;-70
2023/12/17 01:00:45;;;;;;;23.03;15.30;;;3.20;99.90;;;;;;5027589;28;20483;-70
2023/12/17 01:03:12;;;;;;;39.37;17.00;;;3.20;99.90;;;;;;5042805;28;20570;-70
2023/12/17 01:05:38;;;;;;;23.77;16.17;;;3.20;99.90;;;;;;5039805;28;20490;-70
2023/12/17 01:08:05;;;;;;;24.50;14.13;;;3.20;99.90;;;;;;5046704;28;20474;-70
2023/12/17 01:10:33;;;;;;;34.33;14.53;;;3.20;99.90;;;;;;5050494;28;20466;-70
2023/12/17 01:13:00;;;;;;;28.83;15.67;;;3.20;99.90;;;;;;5039071;28;20486;-70
2023/12/17 01:15:27;;;;;;;25.23;14.07;;;3.20;99.90;;;;;;5057520;28;20516;-70
2023/12/17 01:17:53;;;;;;;37.50;17.00;;;3.20;99.90;;;;;;5030371;28;20487;-70
2023/12/17 01:20:20;;;;;;;33.93;17.63;;;2.90;99.90;;;;;;5031870;28;20493;-70
2023/12/17 01:22:47;;;;;;;36.33;15.50;;;2.60;99.90;;;;;;5035176;28;20494;-70
2023/12/17 01:25:14;;;;;;;27.93;15.53;;;2.40;99.90;;;;;;5032052;28;21585;-70
2023/12/17 01:27:42;;;;;;;28.87;17.30;;;2.40;99.90;;;;;;5032443;28;20491;-70
2023/12/17 01:30:10;;;;;;;30.87;14.90;;;2.50;99.90;;;;;;5028478;28;20990;-70
2023/12/17 01:32:36;;;;;;;30.50;14.80;;;2.60;99.90;;;;;;5024844;28;20462;-70
2023/12/17 01:35:05;;;;;;;25.53;14.63;;;2.70;99.90;;;;;;5043219;28;20502;-69
2023/12/17 01:37:32;;;;;;;46.57;17.40;;;2.80;99.90;;;;;;5025812;28;20572;-70
2023/12/17 01:39:59;;;;;;;28.00;15.87;;;2.80;99.90;;;;;;5042149;28;20484;-70
2023/12/17 01:42:26;;;;;;;45.00;16.00;;;;;;;;;;5047846;28;20471;-70
2023/12/17 01:44:54;;;;;;;26.03;15.13;;;2.60;99.90;;;;;;5057856;28;20485;-70
2023/12/17 01:47:21;;;;;;;28.13;14.10;;;2.50;99.90;;;;;;5046750;28;20490;-70
2023/12/17 01:49:47;;;;;;;34.10;14.83;;;2.50;99.90;;;;;;5033342;28;20526;-70
2023/12/17 01:52:14;;;;;;;39.77;15.90;;;2.50;99.90;;;;;;5032428;28;20488;-70
2023/12/17 01:54:41;;;;;;;29.87;15.47;;;2.50;99.90;;;;;;5028739;28;20474;-70
2023/12/17 01:57:08;;;;;;;26.83;14.30;;;2.60;99.90;;;;;;5026797;28;20523;-69
2023/12/17 01:59:36;;;;;;;31.67;14.07;;;2.80;99.90;;;;;;5052902;28;20481;-70
2023/12/17 02:02:04;;;;;;;28.53;14.60;;;2.80;99.90;;;;;;5029323;28;20878;-69
2023/12/17 02:04:32;;;;;;;22.50;14.40;;;2.90;99.90;;;;;;5037420;28;20528;-70
2023/12/17 02:06:59;;;;;;;40.87;15.67;;;3.00;99.90;;;;;;5036919;28;20476;-69
2023/12/17 02:09:26;;;;;;;26.60;14.83;;;3.00;99.90;;;;;;5041704;28;20467;-70
2023/12/17 02:11:52;;;;;;;55.20;17.20;;;3.00;99.90;;;;;;5036936;28;20468;-70
2023/12/17 02:14:19;;;;;;;25.37;13.97;;;3.10;99.90;;;;;;5021174;28;21363;-70
2023/12/17 02:16:46;;;;;;;23.10;13.67;;;3.10;99.90;;;;;;5025011;28;20561;-70
2023/12/17 02:19:14;;;;;;;22.83;14.53;;;3.10;99.90;;;;;;5032159;28;20558;-70
2023/12/17 02:21:41;;;;;;;22.33;14.20;;;3.00;99.90;;;;;;5018000;28;21424;-70
2023/12/17 02:24:09;;;;;;;24.63;14.50;;;3.00;99.90;;;;;;5038276;28;20479;-69
2023/12/17 02:26:36;;;;;;;27.10;14.63;;;3.00;99.90;;;;;;5012612;28;20566;-70
2023/12/17 02:29:03;;;;;;;35.07;15.97;;;3.00;99.90;;;;;;5030032;28;20554;-70
2023/12/17 02:31:29;;;;;;;31.03;14.97;;;3.00;99.90;;;;;;5023462;28;20563;-70
2023/12/17 02:33:56;;;;;;;35.87;15.50;;;2.70;99.90;;;;;;5037538;28;21037;-69
2023/12/17 02:36:23;;;;;;;25.63;14.13;;;2.60;99.90;;;;;;5036776;28;20471;-70
2023/12/17 02:38:49;;;;;;;34.97;14.80;;;2.60;99.90;;;;;;5037094;28;20542;-69
2023/12/17 02:41:18;;;;;;;28.17;13.67;;;2.60;99.90;;;;;;5031937;28;22126;-70
2023/12/17 02:43:44;;;;;;;25.60;13.37;;;2.50;99.90;;;;;;5034438;28;20574;-70
2023/12/17 02:46:11;;;;;;;45.93;16.23;;;2.60;99.90;;;;;;5031540;28;20498;-69
2023/12/17 02:48:39;;;;;;;23.83;15.23;;;2.60;99.90;;;;;;5031004;28;20483;-70
2023/12/17 02:51:06;;;;;;;34.20;16.37;;;2.50;99.90;;;;;;5034529;28;20562;-70
2023/12/17 02:53:33;;;;;;;37.63;17.00;;;2.30;99.90;;;;;;5032803;28;21034;-70
2023/12/17 02:56:00;;;;;;;29.00;13.67;;;2.20;99.90;;;;;;5032343;28;20575;-70
2023/12/17 02:58:29;;;;;;;35.73;16.20;;;2.20;99.90;;;;;;5026128;28;21409;-70
2023/12/17 03:00:55;;;;;;;46.53;17.00;;;2.20;99.90;;;;;;5041596;28;20490;-70
2023/12/17 03:03:22;;;;;;;19.77;14.20;;;2.20;99.90;;;;;;5026523;28;20501;-70
2023/12/17 03:05:49;;;;;;;30.20;14.80;;;2.20;99.90;;;;;;5047563;28;20487;-71
2023/12/17 03:08:16;;;;;;;27.73;15.43;;;2.20;99.90;;;;;;5033753;28;20495;-70
2023/12/17 03:10:43;;;;;;;25.87;15.73;;;2.10;99.90;;;;;;5028712;28;20982;-71
2023/12/17 03:13:10;;;;;;;25.63;14.10;;;2.10;99.90;;;;;;5043077;28;20566;-71
2023/12/17 03:15:38;;;;;;;30.80;16.40;;;2.20;99.90;;;;;;5036064;28;20479;-70
2023/12/17 03:18:05;;;;;;;33.43;15.60;;;2.30;99.90;;;;;;5033583;28;20569;-71
2023/12/17 03:20:32;;;;;;;37.63;16.30;;;2.40;99.90;;;;;;5029993;28;20480;-70
2023/12/17 03:22:59;;;;;;;20.57;13.33;;;2.50;99.90;;;;;;5047663;28;20840;-71
2023/12/17 03:25:27;;;;;;;31.70;14.50;;;2.50;99.90;;;;;;5047019;28;20918;-71
2023/12/17 03:27:53;;;;;;;27.53;13.60;;;2.60;99.90;;;;;;5045486;28;20546;-71
2023/12/17 03:30:20;;;;;;;25.80;14.83;;;2.50;99.90;;;;;;5027882;28;20510;-72
2023/12/17 03:32:48;;;;;;;28.83;15.10;;;2.40;99.90;;;;;;5052342;28;20475;-71
2023/12/17 03:35:15;;;;;;;33.33;16.53;;;2.30;99.90;;;;;;5031874;28;20986;-71
2023/12/17 03:37:42;;;;;;;30.07;14.80;;;2.30;99.90;;;;;;5034618;28;20507;-71
2023/12/17 03:40:11;;;;;;;23.87;13.67;;;2.40;99.90;;;;;;5031420;28;20497;-71
2023/12/17 03:42:37;;;;;;;21.30;14.00;;;2.40;99.90;;;;;;5020191;28;20541;-71
2023/12/17 03:45:05;;;;;;;31.80;14.63;;;2.50;99.90;;;;;;5028167;28;20976;-71
2023/12/17 03:47:32;;;;;;;24.77;14.60;;;2.50;99.90;;;;;;5047993;28;20487;-71
2023/12/17 03:50:00;;;;;;;23.23;13.37;;;2.60;99.90;;;;;;5038569;28;20549;-71
2023/12/17 03:52:27;;;;;;;24.33;13.57;;;2.60;99.90;;;;;;5044736;28;20501;-71
2023/12/17 03:54:54;;;;;;;30.87;14.47;;;2.60;99.90;;;;;;5057572;28;20479;-73
2023/12/17 03:57:20;;;;;;;30.90;15.00;;;2.40;99.90;;;;;;5037468;28;21031;-71
2023/12/17 03:59:47;;;;;;;23.23;14.40;;;2.50;99.90;;;;;;5053384;28;20511;-71
2023/12/17 04:02:14;;;;;;;33.03;15.87;;;2.40;99.90;;;;;;5047554;28;20602;-71
2023/12/17 04:04:41;;;;;;;28.37;16.10;;;2.20;99.90;;;;;;5040942;28;20563;-71
2023/12/17 04:07:09;;;;;;;34.53;14.10;;;2.10;99.90;;;;;;5045322;28;20580;-71
2023/12/17 04:09:36;;;;;;;25.67;14.80;;;;;;;;;;5058098;28;20479;-72
2023/12/17 04:12:03;;;;;;;36.10;14.73;;;1.90;99.90;;;;;;5050245;28;20474;-71
2023/12/17 04:14:29;;;;;;;29.50;17.07;;;1.90;99.90;;;;;;5028090;28;20914;-71
2023/12/17 04:16:56;;;;;;;34.10;16.33;;;1.90;99.90;;;;;;4991406;28;20562;-71
2023/12/17 04:19:23;;;;;;;38.07;17.77;;;1.90;99.90;;;;;;5044467;28;20538;-71
2023/12/17 04:21:49;;;;;;;32.90;18.57;;;1.80;99.90;;;;;;5040196;28;20464;-71
2023/12/17 04:24:17;;;;;;;33.30;17.10;;;1.70;99.90;;;;;;5045139;28;20497;-71
2023/12/17 04:26:44;;;;;;;35.17;18.30;;;1.60;99.90;;;;;;5040461;28;20480;-71
2023/12/17 04:29:11;;;;;;;32.60;17.93;;;1.50;99.90;;;;;;5044699;28;21638;-71
2023/12/17 04:31:38;;;;;;;37.53;17.47;;;1.40;99.90;;;;;;5029412;28;20481;-71
2023/12/17 04:34:05;;;;;;;27.87;16.23;;;1.40;99.90;;;;;;5044729;28;20570;-71
2023/12/17 04:36:31;;;;;;;42.33;19.30;;;1.50;99.90;;;;;;5027759;28;20568;-71
2023/12/17 04:38:58;;;;;;;34.70;16.50;;;1.50;99.90;;;;;;5029330;28;20568;-70
2023/12/17 04:41:26;;;;;;;35.53;16.80;;;1.60;99.90;;;;;;5056313;28;20969;-70
2023/12/17 04:43:53;;;;;;;31.90;16.53;;;1.60;99.90;;;;;;5035123;28;20559;-71
2023/12/17 04:46:20;;;;;;;34.83;17.10;;;1.80;99.90;;;;;;5046452;28;20473;-71
2023/12/17 04:48:47;;;;;;;24.90;15.10;;;1.90;99.90;;;;;;5044735;28;20489;-71
2023/12/17 04:51:13;;;;;;;30.53;16.00;;;2.00;99.90;;;;;;5055758;28;20483;-71
2023/12/17 04:53:40;;;;;;;29.23;15.40;;;2.10;99.90;;;;;;5054131;28;20855;-71
2023/12/17 04:56:08;;;;;;;21.87;12.63;;;2.10;99.90;;;;;;5047826;28;20549;-71
2023/12/17 04:58:36;;;;;;;32.83;13.57;;;2.20;99.90;;;;;;5056667;28;21064;-71
2023/12/17 05:01:03;;;;;;;37.87;14.20;;;2.30;99.90;;;;;;5053234;28;21008;-71
2023/12/17 05:03:29;;;;;;;25.10;14.73;;;2.40;99.90;;;;;;5035751;28;20898;-71
2023/12/17 05:05:56;;;;;;;25.87;13.63;;;2.40;99.90;;;;;;5036930;28;20501;-71
2023/12/17 05:08:23;;;;;;;27.00;14.40;;;2.50;99.90;;;;;;5053649;28;20954;-70
2023/12/17 05:10:50;;;;;;;36.07;14.90;;;2.50;99.90;;;;;;5055655;28;20470;-70
2023/12/17 05:13:16;;;;;;;29.37;15.17;;;2.50;99.90;;;;;;5010148;28;20493;-71
2023/12/17 05:15:44;;;;;;;24.00;14.30;;;2.40;99.90;;;;;;5058950;28;20484;-71
2023/12/17 05:18:11;;;;;;;43.43;15.77;;;2.40;99.90;;;;;;5008834;28;20509;-70
2023/12/17 05:20:38;;;;;;;21.50;13.23;;;2.50;99.90;;;;;;5026469;28;20501;-70
2023/12/17 05:23:05;;;;;;;23.60;13.60;;;2.50;99.90;;;;;;5038305;28;20595;-71
2023/12/17 05:25:32;;;;;;;26.00;15.90;;;2.50;99.90;;;;;;5041936;28;20492;-71
2023/12/17 05:27:58;;;;;;;24.90;13.10;;;2.60;99.90;;;;;;5041874;28;21241;-71
2023/12/17 05:30:25;;;;;;;31.77;15.40;;;2.60;99.90;;;;;;5056269;28;20554;-71
2023/12/17 05:32:53;;;;;;;34.33;14.90;;;2.60;99.90;;;;;;5037711;28;20478;-70
2023/12/17 05:35:20;;;;;;;26.90;16.03;;;2.60;99.90;;;;;;5052999;28;20479;-71
2023/12/17 05:37:47;;;;;;;22.87;15.77;;;2.60;99.90;;;;;;5050889;28;20583;-70
2023/12/17 05:40:14;;;;;;;30.90;15.87;;;2.60;99.90;;;;;;5039601;28;20484;-70
2023/12/17 05:42:40;;;;;;;40.63;18.63;;;2.60;99.90;;;;;;5055377;28;20485;-71
2023/12/17 05:45:08;;;;;;;76.53;19.97;;;2.50;99.90;;;;;;5044077;28;20555;-70
2023/12/17 05:47:35;;;;;;;58.53;19.60;;;2.50;99.90;;;;;;5046779;28;20576;-70
2023/12/17 05:50:04;;;;;;;32.93;16.33;;;2.50;99.90;;;;;;5052980;28;20497;-70
2023/12/17 05:52:31;;;;;;;37.60;15.20;;;2.60;99.90;;;;;;5041314;28;20483;-71
2023/12/17 05:54:57;;;;;;;27.57;15.10;;;2.60;99.90;;;;;;5042109;28;21085;-71
2023/12/17 05:57:24;;;;;;;23.40;14.40;;;2.50;99.90;;;;;;5036162;28;20479;-70
2023/12/17 05:59:51;;;;;;;30.20;14.70;;;2.60;99.90;;;;;;5045619;28;20867;-70
2023/12/17 06:02:18;;;;;;;36.83;14.90;;;2.60;99.90;;;;;;5016312;28;20471;-70
2023/12/17 06:04:44;;;;;;;24.47;14.83;;;2.60;99.90;;;;;;5047178;28;21272;-70
2023/12/17 06:07:12;;;;;;;47.97;14.90;;;2.60;99.90;;;;;;5049338;28;20865;-70
2023/12/17 06:09:40;;;;;;;24.47;14.20;;;2.60;99.90;;;;;;5037914;28;20550;-70
2023/12/17 06:12:07;;;;;;;25.20;13.13;;;2.50;99.90;;;;;;5001989;28;20548;-70
2023/12/17 06:14:34;;;;;;;19.33;12.30;;;2.60;99.90;;;;;;5045685;28;20729;-70
2023/12/17 06:17:01;;;;;;;27.90;15.33;;;2.60;99.90;;;;;;5035049;28;20841;-70
2023/12/17 06:19:28;;;;;;;47.57;14.43;;;2.60;99.90;;;;;;5047471;28;21056;-70
2023/12/17 06:21:55;;;;;;;20.90;12.77;;;2.60;99.90;;;;;;5034557;28;20586;-70
2023/12/17 06:24:24;;;;;;;67.33;16.33;;;2.60;99.90;;;;;;5044340;28;20558;-70
2023/12/17 06:26:50;;;;;;;58.23;15.87;;;2.60;99.90;;;;;;5036558;28;22136;-70
2023/12/17 06:29:17;;;;;;;33.97;14.67;;;2.60;99.90;;;;;;5046539;28;21056;-70
2023/12/17 06:31:44;;;;;;;33.87;15.70;;;2.60;99.90;;;;;;5040571;28;20483;-70
2023/12/17 06:34:10;;;;;;;39.13;16.70;;;2.50;99.90;;;;;;5052959;28;20494;-70
2023/12/17 06:36:37;;;;;;;45.53;15.87;;;2.50;99.90;;;;;;5049039;28;20475;-70
2023/12/17 06:39:08;;;;;;;36.13;16.13;;;2.50;99.90;;;;;;5038903;28;20497;-70
2023/12/17 06:41:37;;;;;;;28.73;14.60;;;2.50;99.90;;;;;;5034238;28;20490;-70
2023/12/17 06:44:04;;;;;;;27.87;16.50;;;2.50;99.90;;;;;;5041799;28;20494;-70
2023/12/17 06:46:31;;;;;;;25.63;14.07;;;2.50;99.90;;;;;;5055765;28;20856;-70
2023/12/17 06:48:57;;;;;;;22.33;14.27;;;2.50;99.90;;;;;;5049417;28;20563;-70
2023/12/17 06:51:24;;;;;;;30.60;15.70;;;2.50;99.90;;;;;;5046247;28;20554;-70
2023/12/17 06:53:51;;;;;;;33.43;14.90;;;;;;;;;;5041065;28;20518;-70
2023/12/17 06:56:18;;;;;;;35.70;14.70;;;2.50;99.90;;;;;;5035231;28;20566;-70
2023/12/17 06:58:46;;;;;;;43.23;16.60;;;2.40;99.90;;;;;;5043226;28;20477;-70
2023/12/17 07:01:13;;;;;;;40.93;18.13;;;2.40;99.90;;;;;;5057944;28;20980;-70
2023/12/17 07:03:40;;;;;;;30.00;16.10;;;2.50;99.90;;;;;;5021833;28;20484;-70
2023/12/17 07:06:11;;;;;;;22.57;14.90;;;2.50;99.90;;;;;;5040091;28;20483;-70
2023/12/17 07:08:38;;;;;;;26.93;15.37;;;2.50;99.90;;;;;;5048211;28;20483;-70
2023/12/17 07:11:05;;;;;;;39.93;15.70;;;2.40;99.90;;;;;;5057160;28;20493;-70
2023/12/17 07:13:32;;;;;;;27.20;15.07;;;2.40;99.90;;;;;;5044965;28;20840;-70
2023/12/17 07:16:00;;;;;;;41.13;14.20;;;2.40;99.90;;;;;;5051456;28;20525;-70
2023/12/17 07:18:26;;;;;;;29.60;14.50;;;2.40;99.90;;;;;;5045685;28;20479;-70
2023/12/17 07:20:53;;;;;;;26.70;14.43;;;2.30;99.90;;;;;;5056897;28;20471;-70
2023/12/17 07:23:22;;;;;;;29.17;14.30;;;2.30;99.90;;;;;;5047838;28;20625;-70
2023/12/17 07:25:48;;;;;;;25.97;14.50;;;2.20;99.90;;;;;;5057187;28;21037;-70
2023/12/17 07:28:15;;;;;;;33.40;14.70;;;2.30;99.90;;;;;;5046775;28;20566;-70
2023/12/17 07:30:42;;;;;;;41.77;15.70;;;2.20;99.90;;;;;;5033214;28;20882;-70
2023/12/17 07:33:10;;;;;;;28.53;15.27;;;1.90;99.90;;;;;;5050341;28;20470;-70
2023/12/17 07:35:37;;;;;;;42.67;16.03;;;1.90;99.90;;;;;;5054636;28;20477;-70
2023/12/17 07:38:03;;;;;;;31.53;15.27;;;1.90;99.90;;;;;;5026868;28;20578;-70
2023/12/17 07:40:30;;;;;;;24.03;14.67;;;2.00;99.90;;;;;;5012959;28;20573;-70
2023/12/17 07:42:57;;;;;;;36.17;16.47;;;2.00;99.90;;;;;;5031857;28;20558;-70
2023/12/17 07:45:24;;;;;;;56.17;17.10;;;2.10;99.90;;;;;;5029624;28;20479;-70
2023/12/17 07:47:50;;;;;;;28.80;15.83;;;2.10;99.90;;;;;;5053886;28;20478;-70
2023/12/17 07:50:19;;;;;;;28.33;14.77;;;2.20;99.90;;;;;;5051786;28;20844;-70
2023/12/17 07:52:46;;;;;;;29.00;15.63;;;2.30;99.90;;;;;;5032399;28;20479;-70
2023/12/17 07:55:13;;;;;;;24.83;14.60;;;2.30;99.90;;;;;;5034099;28;20479;-70
2023/12/17 07:57:40;;;;;;;39.27;15.90;;;2.50;99.90;;;;;;5050859;28;20486;-70
2023/12/17 08:00:08;;;;;;;24.10;13.73;;;2.40;99.90;;;;;;5037736;28;20594;-70
2023/12/17 08:02:35;;;;;;;31.33;14.23;;;2.30;99.90;;;;;;5037727;28;20927;-70
2023/12/17 08:05:02;;;;;;;45.70;16.37;;;2.30;99.90;;;;;;5037488;28;20824;-70
2023/12/17 08:07:30;;;;;;;30.57;16.17;;;2.40;99.90;;;;;;5012443;28;20487;-70
2023/12/17 08:09:57;;;;;;;44.77;16.67;;;2.50;99.90;;;;;;5056009;28;20517;-70
2023/12/17 08:12:23;;;;;;;26.80;13.57;;;2.60;99.90;;;;;;5047031;28;20536;-70
2023/12/17 08:14:50;;;;;;;24.90;15.27;;;2.70;99.90;;;;;;5037654;28;21053;-70
2023/12/17 08:17:17;;;;;;;37.47;16.83;;;2.90;99.90;;;;;;5040558;28;20487;-70
2023/12/17 08:19:44;;;;;;;30.93;17.27;;;3.00;99.90;;;;;;5040716;28;20487;-70
2023/12/17 08:22:10;;;;;;;28.63;16.23;;;3.10;99.90;;;;;;5030593;28;20861;-70
2023/12/17 08:24:39;;;;;;;27.43;15.27;;;3.50;99.90;;;;;;5044050;28;20860;-70
2023/12/17 08:27:06;;;;;;;32.70;17.30;;;3.90;99.90;;;;;;5052444;28;20485;-70
2023/12/17 08:29:33;;;;;;;37.67;19.30;;;4.50;99.90;;;;;;5043950;28;20482;-70
2023/12/17 08:32:00;;;;;;;35.23;17.17;;;4.90;99.90;;;;;;5014248;28;20480;-69
2023/12/17 08:34:29;;;;;;;43.47;24.77;;;5.30;99.90;;;;;;5041369;28;20477;-70
2023/12/17 08:36:55;;;;;;;48.97;26.10;;;5.90;99.90;;;;;;5043515;28;20568;-70
2023/12/17 08:39:23;;;;;;;43.13;23.40;;;6.60;99.90;;;;;;5036636;28;20474;-70
2023/12/17 08:41:51;;;;;;;34.83;20.97;;;7.00;99.90;;;;;;5035896;28;20493;-69
2023/12/17 08:44:22;;;;;;;58.50;20.87;;;7.40;98.70;;;;;;5038167;28;20484;-69
2023/12/17 08:46:49;;;;;;;23.50;15.57;;;7.70;98.20;;;;;;5033494;28;20482;-69
2023/12/17 08:49:15;;;;;;;30.33;15.87;;;8.20;98.00;;;;;;5047535;28;20490;-68
2023/12/17 08:51:42;;;;;;;36.17;19.63;;;8.50;97.20;;;;;;5034947;28;20486;-69
2023/12/17 08:54:10;;;;;;;26.53;19.70;;;8.80;96.70;;;;;;5038405;28;20490;-68
2023/12/17 08:56:44;;;;;;;51.43;20.10;;;8.90;96.30;;;;;;5040437;28;20482;-68
2023/12/17 08:59:12;;;;;;;31.03;17.10;;;9.00;96.00;;;;;;5038131;28;20479;-68
2023/12/17 09:01:40;;;;;;;36.13;17.50;;;9.10;95.80;;;;;;5023407;28;20581;-67
2023/12/17 09:04:08;;;;;;;27.77;18.23;;;9.20;95.70;;;;;;5029377;28;20536;-68
2023/12/17 09:06:42;;;;;;;45.97;16.43;;;9.10;95.40;;;;;;5033131;28;20470;-67
2023/12/17 09:09:09;;;;;;;29.80;16.33;;;9.10;95.60;;;;;;5042060;28;20475;-69
2023/12/17 09:11:36;;;;;;;28.20;18.83;;;8.90;95.60;;;;;;5058081;28;20484;-69
2023/12/17 09:14:02;;;;;;;35.17;20.53;;;8.80;95.70;;;;;;5037077;28;20486;-69
2023/12/17 09:16:30;;;;;;;35.57;20.23;;;8.70;96.10;;;;;;5059439;28;21186;-69
2023/12/17 09:18:57;;;;;;;30.40;17.47;;;8.60;96.30;;;;;;5049031;28;20478;-69
2023/12/17 09:21:25;;;;;;;23.47;17.43;;;8.60;96.60;;;;;;5049201;28;20482;-69
2023/12/17 09:23:52;;;;;;;28.37;16.23;;;8.50;96.60;;;;;;5055004;28;20484;-69
2023/12/17 09:26:19;;;;;;;23.50;16.20;;;8.40;96.90;;;;;;5046598;28;20479;-69
2023/12/17 09:28:47;;;;;;;38.13;16.57;;;;;;;;;;5042113;28;20564;-69
2023/12/17 09:31:14;;;;;;;30.83;17.10;;;8.30;97.10;;;;;;5052430;28;20567;-69
2023/12/17 09:33:42;;;;;;;20.60;13.63;;;8.30;97.30;;;;;;5049736;28;20472;-70
2023/12/17 09:36:10;;;;;;;19.63;13.80;;;8.30;97.40;;;;;;5022081;28;20477;-70
2023/12/17 09:38:36;;;;;;;25.90;13.37;;;8.30;97.50;;;;;;5043334;28;20577;-70
2023/12/17 09:41:05;;;;;;;21.33;13.50;;;8.30;97.70;;;;;;5049307;28;20483;-70
2023/12/17 09:43:32;;;;;;;25.17;14.37;;;8.30;97.80;;;;;;5061701;28;20478;-71
2023/12/17 09:45:59;;;;;;;29.83;18.03;;;8.40;98.10;;;;;;5039019;28;20476;-71
2023/12/17 09:48:27;;;;;;;22.63;13.70;;;8.40;97.90;;;;;;5057452;28;20560;-71
2023/12/17 09:50:56;;;;;;;29.97;14.77;;;8.40;98.10;;;;;;5037919;28;20483;-71
2023/12/17 09:53:23;;;;;;;27.30;13.70;;;8.50;98.20;;;;;;5031756;28;20574;-71
2023/12/17 09:55:49;;;;;;;26.67;16.80;;;8.50;98.10;;;;;;5041649;28;20476;-71
2023/12/17 09:58:16;;;;;;;20.93;14.30;;;8.50;98.30;;;;;;5052491;28;20476;-71
2023/12/17 10:00:43;;;;;;;22.57;13.00;;;8.70;98.20;;;;;;5059747;28;20492;-70
2023/12/17 10:03:12;;;;;;;20.80;14.20;;;8.80;98.20;;;;;;5044993;28;20561;-70
2023/12/17 10:05:39;;;;;;;37.70;25.00;;;8.80;98.40;;;;;;5052355;28;20471;-70
2023/12/17 10:08:07;;;;;;;24.20;14.23;;;8.90;98.20;;;;;;5026052;28;20486;-70
2023/12/17 10:10:34;;;;;;;21.03;15.03;;;9.00;98.40;;;;;;5032131;28;20483;-70
2023/12/17 10:13:01;;;;;;;25.43;16.90;;;9.00;98.50;;;;;;5010356;28;20491;-71
2023/12/17 10:15:28;;;;;;;38.70;24.07;;;9.10;98.60;;;;;;5052904;28;20484;-71
2023/12/17 10:17:54;;;;;;;41.40;25.90;;;9.10;98.60;;;;;;5029654;28;20483;-71
2023/12/17 10:20:22;;;;;;;33.53;22.87;;;;;;;;;;5043428;28;20998;-71
2023/12/17 10:22:59;;;;;;;31.20;19.50;;;9.50;98.70;;;;;;5039499;28;21038;-72
2023/12/17 10:25:28;;;;;;;21.00;12.27;;;9.50;98.70;;;;;;5058078;28;21089;-71
2023/12/17 10:27:57;;;;;;;26.47;14.23;;;9.60;98.60;;;;;;5050020;28;20912;-72
2023/12/17 10:30:27;;;;;;;19.33;12.90;;;;;;;;;;5050004;28;20575;-71
2023/12/17 10:32:54;;;;;;;19.73;14.30;;;9.80;98.60;;;;;;5050758;28;20483;-72
2023/12/17 10:35:23;;;;;;;34.00;17.73;;;9.90;98.80;;;;;;5039971;28;20447;-71
2023/12/17 10:37:53;;;;;;;20.80;12.77;;;10.00;98.30;;;;;;5065517;28;20479;-72
2023/12/17 10:40:20;;;;;;;23.27;14.50;;;10.10;98.40;;;;;;5049731;28;20517;-72
2023/12/17 10:42:50;;;;;;;26.60;13.27;;;10.30;98.20;;;;;;5071983;28;20481;-71
2023/12/17 10:45:19;;;;;;;22.20;13.10;;;10.50;98.00;;;;;;5045105;28;20483;-71
2023/12/17 10:47:48;;;;;;;21.60;13.23;;;10.50;97.90;;;;;;5060957;28;20566;-71
2023/12/17 10:50:15;;;;;;;22.70;12.93;;;10.80;97.90;;;;;;5054719;28;20483;-72
2023/12/17 10:52:44;;;;;;;18.77;13.97;;;10.90;97.70;;;;;;5053402;28;21150;-71
2023/12/17 10:55:11;;;;;;;25.33;13.20;;;11.00;97.70;;;;;;5057778;28;20485;-71
2023/12/17 10:57:41;;;;;;;20.00;13.13;;;10.90;97.60;;;;;;5045142;28;20549;-71
2023/12/17 11:00:11;;;;;;;17.53;13.03;;;11.00;97.70;;;;;;5054090;28;21062;-70
2023/12/17 11:02:39;;;;;;;25.10;13.60;;;11.10;97.80;;;;;;5055590;28;20561;-70
2023/12/17 11:05:06;;;;;;;29.97;13.53;;;11.20;97.90;;;;;;5061524;28;20509;-71
2023/12/17 11:07:33;;;;;;;19.20;12.00;;;11.30;97.90;;;;;;5051622;28;20488;-71
2023/12/17 11:10:01;;;;;;;22.63;14.70;;;11.40;98.10;;;;;;5069831;28;20558;-70
2023/12/17 11:12:27;;;;;;;22.00;13.17;;;11.50;97.90;;;;;;5056169;28;20496;-70
2023/12/17 11:14:55;;;;;;;24.53;13.97;;;11.60;98.30;;;;;;5048526;28;20753;-71
2023/12/17 11:17:23;;;;;;;21.43;13.60;;;11.70;97.90;;;;;;5072767;28;20521;-71
2023/12/17 11:19:58;;;;;;;14.33;11.90;;;11.80;98.10;;;;;;5060783;28;20486;-70
2023/12/17 11:22:25;;;;;;;25.50;13.50;;;12.00;97.80;;;;;;5042443;28;20554;-71
2023/12/17 11:24:55;;;;;;;22.83;12.80;;;12.10;97.90;;;;;;5042955;28;20482;-71
2023/12/17 11:27:22;;;;;;;19.90;14.80;;;12.30;98.10;;;;;;5033687;28;20595;-70
2023/12/17 11:29:50;;;;;;;17.70;13.83;;;12.50;97.80;;;;;;5038158;28;20485;-70
2023/12/17 11:32:18;;;;;;;22.10;16.20;;;12.60;97.30;;;;;;5051666;28;21040;-71
2023/12/17 11:34:49;;;;;;;34.53;14.43;;;12.80;97.60;;;;;;5049421;28;20702;-70
2023/12/17 11:37:19;;;;;;;24.23;13.63;;;13.00;97.50;;;;;;5025770;28;20475;-70
2023/12/17 11:39:46;;;;;;;18.50;13.33;;;13.10;96.90;;;;;;5037002;28;20498;-70
2023/12/17 11:42:14;;;;;;;18.13;11.27;;;13.10;96.80;;;;;;5055457;28;20605;-70
2023/12/17 11:44:43;;;;;;;22.93;11.53;;;13.10;96.60;;;;;;5064660;28;20474;-70
2023/12/17 11:47:11;;;;;;;14.93;10.90;;;13.20;96.90;;;;;;5044094;28;20499;-70
2023/12/17 11:49:38;;;;;;;19.80;11.50;;;13.20;96.80;;;;;;5040495;28;20916;-70
2023/12/17 11:52:13;;;;;;;27.87;12.20;;;13.40;97.30;;;;;;5009619;28;20469;-70
2023/12/17 11:54:40;;;;;;;20.43;12.73;;;13.60;97.20;;;;;;5052334;28;20879;-70
2023/12/17 11:57:19;;;;;;;24.63;11.93;;;13.80;96.90;;;;;;5018373;28;20610;-70
2023/12/17 11:59:47;;;;;;;21.50;14.17;;;13.90;96.60;;;;;;5020556;28;20518;-70
2023/12/17 12:02:16;;;;;;;18.37;10.97;;;14.10;96.10;;;;;;5036146;28;20558;-70
2023/12/17 12:04:43;;;;;;;19.83;10.13;;;14.20;96.10;;;;;;5037421;28;20494;-70
2023/12/17 12:07:11;;;;;;;15.77;10.30;;;14.20;96.00;;;;;;5036062;28;20472;-70
2023/12/17 12:09:38;;;;;;;20.77;11.00;;;14.20;95.70;;;;;;5026985;28;20536;-71
2023/12/17 12:12:15;;;;;;;20.97;10.37;;;14.20;96.10;;;;;;5033149;28;21229;-70
2023/12/17 12:14:44;;;;;;;13.43;9.30;;;14.30;96.10;;;;;;5031497;28;20551;-70
2023/12/17 12:17:36;;;;;;;17.90;10.37;;;14.40;95.60;;;;;;5033839;28;20574;-69
2023/12/17 12:20:03;;;;;;;15.23;8.40;;;14.40;94.70;;;;;;5051210;28;20485;-70
2023/12/17 12:22:31;;;;;;;12.43;7.47;;;14.50;95.70;;;;;;5036040;28;21009;-70
2023/12/17 12:24:59;;;;;;;16.77;7.90;;;;;;;;;;5049084;28;20482;-70
2023/12/17 12:27:25;;;;;;;13.93;9.00;;;14.80;95.50;;;;;;5037890;28;20493;-70
2023/12/17 12:29:53;;;;;;;15.77;8.67;;;14.80;95.70;;;;;;5052386;28;20509;-70
2023/12/17 12:32:27;;;;;;;17.47;7.37;;;15.40;94.90;;;;;;5051236;28;20582;-70
2023/12/17 12:34:55;;;;;;;15.93;8.40;;;15.50;94.60;;;;;;5026551;28;20475;-70
2023/12/17 12:37:33;;;;;;;20.80;9.83;;;15.60;94.90;;;;;;5028814;28;20863;-70
2023/12/17 12:40:00;;;;;;;14.50;8.83;;;15.60;94.70;;;;;;5040245;28;20461;-70